sensor_id;sensor_type;location;lat;lon;timestamp;temperature;humidity
65876;HTU21D;52657;51.128;5.938;2023-04-10T00:01:49;12.76;54.58
65876;HTU21D;52657;51.128;5.938;2023-04-10T00:04:15;12.71;54.92
65876;HTU21D;52657;51.128;5.938;2023-04-10T00:06:41;12.69;55.07
65876;HTU21D;52657;51.128;5.938;2023-04-10T00:09:09;12.69;55.12
65876;HTU21D;52657;51.128;5.938;2023-04-10T00:11:35;12.69;55.15
65876;HTU21D;52657;51.128;5.938;2023-04-10T00:14:01;12.67;55.11
65876;HTU21D;52657;51.128;5.938;2023-04-10T00:16:26;12.69;55.11
65876;HTU21D;52657;51.128;5.938;2023-04-10T00:18:52;12.67;55.23
65876;HTU21D;52657;51.128;5.938;2023-04-10T00:21:17;12.66;55.48
65876;HTU21D;52657;51.128;5.938;2023-04-10T00:23:45;12.70;55.33
65876;HTU21D;52657;51.128;5.938;2023-04-10T00:26:11;12.69;55.44
65876;HTU21D;52657;51.128;5.938;2023-04-10T00:28:37;12.69;55.27
65876;HTU21D;52657;51.128;5.938;2023-04-10T00:31:03;12.65;55.09
65876;HTU21D;52657;51.128;5.938;2023-04-10T00:33:29;12.63;55.02
65876;HTU21D;52657;51.128;5.938;2023-04-10T00:35:55;12.59;54.95
65876;HTU21D;52657;51.128;5.938;2023-04-10T00:38:21;12.53;55.13
65876;HTU21D;52657;51.128;5.938;2023-04-10T00:40:47;12.51;55.26
65876;HTU21D;52657;51.128;5.938;2023-04-10T00:43:13;12.49;55.28
65876;HTU21D;52657;51.128;5.938;2023-04-10T00:45:39;12.47;55.27
65876;HTU21D;52657;51.128;5.938;2023-04-10T00:48:06;12.46;55.34
65876;HTU21D;52657;51.128;5.938;2023-04-10T00:50:32;12.42;55.42
65876;HTU21D;52657;51.128;5.938;2023-04-10T00:52:58;12.42;55.42
65876;HTU21D;52657;51.128;5.938;2023-04-10T00:55:24;12.38;55.29
65876;HTU21D;52657;51.128;5.938;2023-04-10T00:57:50;12.35;54.99
65876;HTU21D;52657;51.128;5.938;2023-04-10T01:00:17;12.33;55.10
65876;HTU21D;52657;51.128;5.938;2023-04-10T01:02:43;12.30;55.38
65876;HTU21D;52657;51.128;5.938;2023-04-10T01:05:11;12.25;55.45
65876;HTU21D;52657;51.128;5.938;2023-04-10T01:10:49;12.17;55.02
65876;HTU21D;52657;51.128;5.938;2023-04-10T01:13:26;12.13;54.75
65876;HTU21D;52657;51.128;5.938;2023-04-10T01:16:00;12.07;54.62
65876;HTU21D;52657;51.128;5.938;2023-04-10T01:18:36;12.03;54.62
65876;HTU21D;52657;51.128;5.938;2023-04-10T01:21:07;11.99;54.62
65876;HTU21D;52657;51.128;5.938;2023-04-10T01:29:34;11.90;54.82
65876;HTU21D;52657;51.128;5.938;2023-04-10T01:32:08;11.88;54.92
65876;HTU21D;52657;51.128;5.938;2023-04-10T01:34:42;11.87;54.79
65876;HTU21D;52657;51.128;5.938;2023-04-10T01:37:30;11.86;54.62
65876;HTU21D;52657;51.128;5.938;2023-04-10T01:40:05;11.86;54.51
65876;HTU21D;52657;51.128;5.938;2023-04-10T01:42:38;11.81;54.53
65876;HTU21D;52657;51.128;5.938;2023-04-10T01:45:10;11.75;54.60
65876;HTU21D;52657;51.128;5.938;2023-04-10T01:47:36;11.72;54.88
65876;HTU21D;52657;51.128;5.938;2023-04-10T01:50:04;11.71;55.04
65876;HTU21D;52657;51.128;5.938;2023-04-10T01:52:33;11.71;55.07
65876;HTU21D;52657;51.128;5.938;2023-04-10T01:55:07;11.71;54.94
65876;HTU21D;52657;51.128;5.938;2023-04-10T01:57:41;11.71;54.75
65876;HTU21D;52657;51.128;5.938;2023-04-10T02:00:07;11.68;54.94
65876;HTU21D;52657;51.128;5.938;2023-04-10T02:02:40;11.67;54.99
65876;HTU21D;52657;51.128;5.938;2023-04-10T02:05:08;11.68;55.12
65876;HTU21D;52657;51.128;5.938;2023-04-10T02:08:00;11.68;54.89
65876;HTU21D;52657;51.128;5.938;2023-04-10T02:10:42;11.64;54.94
65876;HTU21D;52657;51.128;5.938;2023-04-10T02:13:10;11.62;55.11
65876;HTU21D;52657;51.128;5.938;2023-04-10T02:15:45;11.59;55.01
65876;HTU21D;52657;51.128;5.938;2023-04-10T02:18:15;11.55;55.07
65876;HTU21D;52657;51.128;5.938;2023-04-10T02:20:43;11.49;55.23
65876;HTU21D;52657;51.128;5.938;2023-04-10T02:23:14;11.42;55.45
65876;HTU21D;52657;51.128;5.938;2023-04-10T02:25:41;11.38;55.65
65876;HTU21D;52657;51.128;5.938;2023-04-10T02:28:07;11.31;55.87
65876;HTU21D;52657;51.128;5.938;2023-04-10T02:30:33;11.27;56.02
65876;HTU21D;52657;51.128;5.938;2023-04-10T02:33:01;11.23;56.16
65876;HTU21D;52657;51.128;5.938;2023-04-10T02:35:28;11.20;56.34
65876;HTU21D;52657;51.128;5.938;2023-04-10T02:37:54;11.17;56.45
65876;HTU21D;52657;51.128;5.938;2023-04-10T02:40:20;11.13;56.55
65876;HTU21D;52657;51.128;5.938;2023-04-10T02:42:54;11.11;56.70
65876;HTU21D;52657;51.128;5.938;2023-04-10T02:45:20;11.08;56.84
65876;HTU21D;52657;51.128;5.938;2023-04-10T02:47:46;11.01;57.11
65876;HTU21D;52657;51.128;5.938;2023-04-10T02:50:13;10.99;57.26
65876;HTU21D;52657;51.128;5.938;2023-04-10T02:52:42;10.98;57.45
65876;HTU21D;52657;51.128;5.938;2023-04-10T02:55:08;10.98;57.59
65876;HTU21D;52657;51.128;5.938;2023-04-10T02:57:36;10.97;57.51
65876;HTU21D;52657;51.128;5.938;2023-04-10T03:00:03;10.94;57.67
65876;HTU21D;52657;51.128;5.938;2023-04-10T03:02:44;10.95;57.63
65876;HTU21D;52657;51.128;5.938;2023-04-10T03:05:15;10.95;57.69
65876;HTU21D;52657;51.128;5.938;2023-04-10T03:07:40;10.89;57.59
65876;HTU21D;52657;51.128;5.938;2023-04-10T03:10:07;10.86;57.69
65876;HTU21D;52657;51.128;5.938;2023-04-10T03:12:33;10.87;57.69
65876;HTU21D;52657;51.128;5.938;2023-04-10T03:14:59;10.87;57.77
65876;HTU21D;52657;51.128;5.938;2023-04-10T03:17:25;10.85;57.72
65876;HTU21D;52657;51.128;5.938;2023-04-10T03:19:51;10.83;57.75
65876;HTU21D;52657;51.128;5.938;2023-04-10T03:22:18;10.82;57.75
65876;HTU21D;52657;51.128;5.938;2023-04-10T03:24:43;10.81;57.74
65876;HTU21D;52657;51.128;5.938;2023-04-10T03:27:09;10.81;57.79
65876;HTU21D;52657;51.128;5.938;2023-04-10T03:29:35;10.77;57.90
65876;HTU21D;52657;51.128;5.938;2023-04-10T03:32:00;10.72;58.06
65876;HTU21D;52657;51.128;5.938;2023-04-10T03:34:26;10.70;58.07
65876;HTU21D;52657;51.128;5.938;2023-04-10T03:36:52;10.66;58.16
65876;HTU21D;52657;51.128;5.938;2023-04-10T03:39:17;10.64;58.31
65876;HTU21D;52657;51.128;5.938;2023-04-10T03:41:43;10.60;58.34
65876;HTU21D;52657;51.128;5.938;2023-04-10T03:44:12;10.59;58.42
65876;HTU21D;52657;51.128;5.938;2023-04-10T03:46:38;10.59;58.49
65876;HTU21D;52657;51.128;5.938;2023-04-10T03:49:04;10.56;58.48
65876;HTU21D;52657;51.128;5.938;2023-04-10T03:51:31;10.55;58.48
65876;HTU21D;52657;51.128;5.938;2023-04-10T03:53:57;10.56;58.45
65876;HTU21D;52657;51.128;5.938;2023-04-10T03:56:23;10.54;58.51
65876;HTU21D;52657;51.128;5.938;2023-04-10T03:58:49;10.53;58.55
65876;HTU21D;52657;51.128;5.938;2023-04-10T04:01:15;10.53;58.57
65876;HTU21D;52657;51.128;5.938;2023-04-10T04:04:04;10.50;58.61
65876;HTU21D;52657;51.128;5.938;2023-04-10T04:07:05;10.49;58.67
65876;HTU21D;52657;51.128;5.938;2023-04-10T04:09:47;10.49;58.68
65876;HTU21D;52657;51.128;5.938;2023-04-10T04:12:33;10.46;58.93
65876;HTU21D;52657;51.128;5.938;2023-04-10T04:15:14;10.51;58.87
65876;HTU21D;52657;51.128;5.938;2023-04-10T04:17:49;10.56;58.57
65876;HTU21D;52657;51.128;5.938;2023-04-10T04:20:45;10.57;58.39
65876;HTU21D;52657;51.128;5.938;2023-04-10T04:23:15;10.55;58.22
65876;HTU21D;52657;51.128;5.938;2023-04-10T04:26:05;10.56;58.32
65876;HTU21D;52657;51.128;5.938;2023-04-10T04:28:31;10.58;58.19
65876;HTU21D;52657;51.128;5.938;2023-04-10T04:31:15;10.58;58.11
65876;HTU21D;52657;51.128;5.938;2023-04-10T04:34:05;10.62;58.11
65876;HTU21D;52657;51.128;5.938;2023-04-10T04:36:52;10.62;57.93
65876;HTU21D;52657;51.128;5.938;2023-04-10T04:39:36;10.63;57.93
65876;HTU21D;52657;51.128;5.938;2023-04-10T04:42:34;10.62;57.84
65876;HTU21D;52657;51.128;5.938;2023-04-10T04:45:18;10.57;57.93
65876;HTU21D;52657;51.128;5.938;2023-04-10T04:48:09;10.52;58.09
65876;HTU21D;52657;51.128;5.938;2023-04-10T04:50:57;10.49;58.22
65876;HTU21D;52657;51.128;5.938;2023-04-10T04:53:41;10.50;58.29
65876;HTU21D;52657;51.128;5.938;2023-04-10T04:56:26;10.51;58.25
65876;HTU21D;52657;51.128;5.938;2023-04-10T04:59:05;10.53;58.15
65876;HTU21D;52657;51.128;5.938;2023-04-10T05:02:06;10.55;58.05
65876;HTU21D;52657;51.128;5.938;2023-04-10T05:04:54;10.54;57.87
65876;HTU21D;52657;51.128;5.938;2023-04-10T05:07:43;10.52;57.93
65876;HTU21D;52657;51.128;5.938;2023-04-10T05:10:14;10.48;58.11
65876;HTU21D;52657;51.128;5.938;2023-04-10T05:13:03;10.48;58.24
65876;HTU21D;52657;51.128;5.938;2023-04-10T05:16:01;10.49;58.22
65876;HTU21D;52657;51.128;5.938;2023-04-10T05:18:56;10.50;58.04
65876;HTU21D;52657;51.128;5.938;2023-04-10T05:21:40;10.52;57.98
65876;HTU21D;52657;51.128;5.938;2023-04-10T05:24:24;10.50;57.85
65876;HTU21D;52657;51.128;5.938;2023-04-10T05:27:12;10.48;58.03
65876;HTU21D;52657;51.128;5.938;2023-04-10T05:30:02;10.44;58.40
65876;HTU21D;52657;51.128;5.938;2023-04-10T05:32:53;10.42;58.81
65876;HTU21D;52657;51.128;5.938;2023-04-10T05:35:18;10.40;58.86
65876;HTU21D;52657;51.128;5.938;2023-04-10T05:37:53;10.39;58.70
65876;HTU21D;52657;51.128;5.938;2023-04-10T05:40:24;10.43;58.87
65876;HTU21D;52657;51.128;5.938;2023-04-10T05:43:22;10.52;58.58
65876;HTU21D;52657;51.128;5.938;2023-04-10T05:46:10;10.59;58.40
65876;HTU21D;52657;51.128;5.938;2023-04-10T05:48:47;10.69;58.31
65876;HTU21D;52657;51.128;5.938;2023-04-10T05:51:24;10.77;58.17
65876;HTU21D;52657;51.128;5.938;2023-04-10T05:54:29;10.86;58.25
65876;HTU21D;52657;51.128;5.938;2023-04-10T05:57:08;10.89;57.85
65876;HTU21D;52657;51.128;5.938;2023-04-10T05:59:52;10.99;57.65
65876;HTU21D;52657;51.128;5.938;2023-04-10T06:02:37;11.11;57.48
65876;HTU21D;52657;51.128;5.938;2023-04-10T06:05:06;11.19;57.19
65876;HTU21D;52657;51.128;5.938;2023-04-10T06:07:33;11.28;57.06
65876;HTU21D;52657;51.128;5.938;2023-04-10T06:09:59;11.38;56.83
65876;HTU21D;52657;51.128;5.938;2023-04-10T06:12:24;11.43;56.65
65876;HTU21D;52657;51.128;5.938;2023-04-10T06:14:51;11.51;56.59
65876;HTU21D;52657;51.128;5.938;2023-04-10T06:17:20;11.55;56.87
65876;HTU21D;52657;51.128;5.938;2023-04-10T06:19:46;11.62;56.47
65876;HTU21D;52657;51.128;5.938;2023-04-10T06:22:12;11.67;56.16
65876;HTU21D;52657;51.128;5.938;2023-04-10T06:24:37;11.73;56.24
65876;HTU21D;52657;51.128;5.938;2023-04-10T06:27:04;11.81;55.89
65876;HTU21D;52657;51.128;5.938;2023-04-10T06:29:30;11.85;55.68
65876;HTU21D;52657;51.128;5.938;2023-04-10T06:31:55;11.86;55.63
65876;HTU21D;52657;51.128;5.938;2023-04-10T06:34:22;11.88;55.68
65876;HTU21D;52657;51.128;5.938;2023-04-10T06:36:56;11.91;55.87
65876;HTU21D;52657;51.128;5.938;2023-04-10T06:39:22;12.01;55.71
65876;HTU21D;52657;51.128;5.938;2023-04-10T06:41:47;12.12;55.84
65876;HTU21D;52657;51.128;5.938;2023-04-10T06:44:33;12.25;55.90
65876;HTU21D;52657;51.128;5.938;2023-04-10T06:46:59;12.40;55.50
65876;HTU21D;52657;51.128;5.938;2023-04-10T06:49:25;12.65;55.04
65876;HTU21D;52657;51.128;5.938;2023-04-10T06:51:54;12.92;54.31
65876;HTU21D;52657;51.128;5.938;2023-04-10T06:54:19;13.25;53.86
65876;HTU21D;52657;51.128;5.938;2023-04-10T06:56:45;13.56;53.17
65876;HTU21D;52657;51.128;5.938;2023-04-10T06:59:11;13.92;52.63
65876;HTU21D;52657;51.128;5.938;2023-04-10T07:01:36;14.32;51.59
65876;HTU21D;52657;51.128;5.938;2023-04-10T07:04:02;14.64;50.66
65876;HTU21D;52657;51.128;5.938;2023-04-10T07:06:28;14.93;49.69
65876;HTU21D;52657;51.128;5.938;2023-04-10T07:08:53;15.09;48.89
65876;HTU21D;52657;51.128;5.938;2023-04-10T07:11:19;15.23;48.28
65876;HTU21D;52657;51.128;5.938;2023-04-10T07:13:45;15.45;47.61
65876;HTU21D;52657;51.128;5.938;2023-04-10T07:16:10;15.59;47.28
65876;HTU21D;52657;51.128;5.938;2023-04-10T07:18:36;15.62;46.86
65876;HTU21D;52657;51.128;5.938;2023-04-10T07:21:10;15.67;46.51
65876;HTU21D;52657;51.128;5.938;2023-04-10T07:23:38;15.73;46.42
65876;HTU21D;52657;51.128;5.938;2023-04-10T07:26:05;15.82;46.38
65876;HTU21D;52657;51.128;5.938;2023-04-10T07:28:31;16.01;46.26
65876;HTU21D;52657;51.128;5.938;2023-04-10T07:30:57;16.17;45.42
65876;HTU21D;52657;51.128;5.938;2023-04-10T07:33:23;16.14;45.14
65876;HTU21D;52657;51.128;5.938;2023-04-10T07:35:49;16.13;45.21
65876;HTU21D;52657;51.128;5.938;2023-04-10T07:38:14;16.08;45.10
65876;HTU21D;52657;51.128;5.938;2023-04-10T07:40:40;16.05;45.23
65876;HTU21D;52657;51.128;5.938;2023-04-10T07:43:06;16.11;45.38
65876;HTU21D;52657;51.128;5.938;2023-04-10T07:45:31;16.06;45.22
65876;HTU21D;52657;51.128;5.938;2023-04-10T07:47:57;15.98;45.29
65876;HTU21D;52657;51.128;5.938;2023-04-10T07:50:23;15.95;45.66
65876;HTU21D;52657;51.128;5.938;2023-04-10T07:52:49;15.93;45.81
65876;HTU21D;52657;51.128;5.938;2023-04-10T07:55:15;15.92;46.25
65876;HTU21D;52657;51.128;5.938;2023-04-10T07:57:41;15.90;46.63
65876;HTU21D;52657;51.128;5.938;2023-04-10T08:00:07;15.98;46.78
65876;HTU21D;52657;51.128;5.938;2023-04-10T08:02:38;16.12;46.68
65876;HTU21D;52657;51.128;5.938;2023-04-10T08:05:06;16.31;46.51
65876;HTU21D;52657;51.128;5.938;2023-04-10T08:07:31;16.54;46.01
65876;HTU21D;52657;51.128;5.938;2023-04-10T08:09:57;16.77;45.54
65876;HTU21D;52657;51.128;5.938;2023-04-10T08:12:23;16.91;44.26
65876;HTU21D;52657;51.128;5.938;2023-04-10T08:14:48;16.99;44.74
65876;HTU21D;52657;51.128;5.938;2023-04-10T08:17:15;17.09;44.18
65876;HTU21D;52657;51.128;5.938;2023-04-10T08:19:41;17.28;43.88
65876;HTU21D;52657;51.128;5.938;2023-04-10T08:22:07;17.59;43.67
65876;HTU21D;52657;51.128;5.938;2023-04-10T08:24:33;18.06;43.06
65876;HTU21D;52657;51.128;5.938;2023-04-10T08:26:59;18.59;42.23
65876;HTU21D;52657;51.128;5.938;2023-04-10T08:29:25;19.15;40.86
65876;HTU21D;52657;51.128;5.938;2023-04-10T08:31:51;19.63;39.48
65876;HTU21D;52657;51.128;5.938;2023-04-10T08:34:18;19.95;38.89
65876;HTU21D;52657;51.128;5.938;2023-04-10T08:36:45;20.50;38.40
65876;HTU21D;52657;51.128;5.938;2023-04-10T08:39:11;21.03;36.92
65876;HTU21D;52657;51.128;5.938;2023-04-10T08:41:39;21.34;36.53
65876;HTU21D;52657;51.128;5.938;2023-04-10T08:44:05;21.45;35.16
65876;HTU21D;52657;51.128;5.938;2023-04-10T08:46:35;21.27;35.16
65876;HTU21D;52657;51.128;5.938;2023-04-10T08:49:05;20.90;35.28
65876;HTU21D;52657;51.128;5.938;2023-04-10T08:51:36;20.48;36.47
65876;HTU21D;52657;51.128;5.938;2023-04-10T08:54:13;20.21;37.25
65876;HTU21D;52657;51.128;5.938;2023-04-10T08:56:49;20.03;37.95
65876;HTU21D;52657;51.128;5.938;2023-04-10T08:59:27;19.85;38.39
65876;HTU21D;52657;51.128;5.938;2023-04-10T09:01:55;19.69;38.96
65876;HTU21D;52657;51.128;5.938;2023-04-10T09:04:25;19.65;39.39
65876;HTU21D;52657;51.128;5.938;2023-04-10T09:06:52;19.71;39.92
65876;HTU21D;52657;51.128;5.938;2023-04-10T09:09:18;19.74;39.56
65876;HTU21D;52657;51.128;5.938;2023-04-10T09:11:55;19.63;39.43
65876;HTU21D;52657;51.128;5.938;2023-04-10T09:14:21;19.60;39.96
65876;HTU21D;52657;51.128;5.938;2023-04-10T09:16:48;19.56;39.85
65876;HTU21D;52657;51.128;5.938;2023-04-10T09:19:28;19.42;40.00
65876;HTU21D;52657;51.128;5.938;2023-04-10T09:21:55;19.37;40.36
65876;HTU21D;52657;51.128;5.938;2023-04-10T09:24:22;19.37;40.35
65876;HTU21D;52657;51.128;5.938;2023-04-10T09:26:48;19.43;39.27
65876;HTU21D;52657;51.128;5.938;2023-04-10T09:29:14;19.55;39.20
65876;HTU21D;52657;51.128;5.938;2023-04-10T09:31:42;19.73;39.14
65876;HTU21D;52657;51.128;5.938;2023-04-10T09:34:11;19.91;37.93
65876;HTU21D;52657;51.128;5.938;2023-04-10T09:36:39;19.97;37.72
65876;HTU21D;52657;51.128;5.938;2023-04-10T09:39:07;19.95;36.71
65876;HTU21D;52657;51.128;5.938;2023-04-10T09:41:33;19.91;36.99
65876;HTU21D;52657;51.128;5.938;2023-04-10T09:46:31;19.99;36.69
65876;HTU21D;52657;51.128;5.938;2023-04-10T09:48:57;20.06;36.76
65876;HTU21D;52657;51.128;5.938;2023-04-10T09:51:31;20.12;36.22
65876;HTU21D;52657;51.128;5.938;2023-04-10T09:53:57;20.18;36.06
65876;HTU21D;52657;51.128;5.938;2023-04-10T09:56:24;20.13;36.11
65876;HTU21D;52657;51.128;5.938;2023-04-10T09:58:56;20.16;36.63
65876;HTU21D;52657;51.128;5.938;2023-04-10T10:01:25;20.24;36.53
65876;HTU21D;52657;51.128;5.938;2023-04-10T10:03:53;20.27;36.55
65876;HTU21D;52657;51.128;5.938;2023-04-10T10:06:19;20.21;36.63
65876;HTU21D;52657;51.128;5.938;2023-04-10T10:08:47;20.06;36.46
65876;HTU21D;52657;51.128;5.938;2023-04-10T10:11:20;19.98;36.56
65876;HTU21D;52657;51.128;5.938;2023-04-10T10:13:51;19.95;36.70
65876;HTU21D;52657;51.128;5.938;2023-04-10T10:21:51;19.83;36.47
65876;HTU21D;52657;51.128;5.938;2023-04-10T10:24:19;19.79;36.76
65876;HTU21D;52657;51.128;5.938;2023-04-10T10:26:46;19.74;36.84
65876;HTU21D;52657;51.128;5.938;2023-04-10T10:29:14;19.66;36.71
65876;HTU21D;52657;51.128;5.938;2023-04-10T10:31:41;19.65;37.27
65876;HTU21D;52657;51.128;5.938;2023-04-10T10:34:08;19.66;36.86
65876;HTU21D;52657;51.128;5.938;2023-04-10T10:36:38;19.62;36.76
65876;HTU21D;52657;51.128;5.938;2023-04-10T10:42:24;19.81;37.53
65876;HTU21D;52657;51.128;5.938;2023-04-10T10:45:14;19.92;37.34
65876;HTU21D;52657;51.128;5.938;2023-04-10T10:47:48;19.95;36.57
65876;HTU21D;52657;51.128;5.938;2023-04-10T10:50:15;19.90;36.84
65876;HTU21D;52657;51.128;5.938;2023-04-10T10:52:42;19.89;37.33
65876;HTU21D;52657;51.128;5.938;2023-04-10T10:58:06;20.06;37.10
65876;HTU21D;52657;51.128;5.938;2023-04-10T11:06:05;20.41;37.08
65876;HTU21D;52657;51.128;5.938;2023-04-10T11:11:05;20.39;36.27
65876;HTU21D;52657;51.128;5.938;2023-04-10T11:13:37;20.46;36.51
65876;HTU21D;52657;51.128;5.938;2023-04-10T11:16:05;20.45;35.69
65876;HTU21D;52657;51.128;5.938;2023-04-10T11:21:13;20.46;36.13
65876;HTU21D;52657;51.128;5.938;2023-04-10T11:29:04;20.62;35.38
65876;HTU21D;52657;51.128;5.938;2023-04-10T11:31:31;20.69;35.64
65876;HTU21D;52657;51.128;5.938;2023-04-10T11:34:02;20.81;35.66
65876;HTU21D;52657;51.128;5.938;2023-04-10T11:36:29;20.81;34.99
65876;HTU21D;52657;51.128;5.938;2023-04-10T11:39:06;20.81;34.99
65876;HTU21D;52657;51.128;5.938;2023-04-10T11:41:54;20.92;35.03
65876;HTU21D;52657;51.128;5.938;2023-04-10T11:44:28;20.92;34.50
65876;HTU21D;52657;51.128;5.938;2023-04-10T11:46:55;20.88;34.47
65876;HTU21D;52657;51.128;5.938;2023-04-10T11:49:23;20.90;34.66
65876;HTU21D;52657;51.128;5.938;2023-04-10T11:51:50;21.01;34.53
65876;HTU21D;52657;51.128;5.938;2023-04-10T11:54:18;21.06;34.85
65876;HTU21D;52657;51.128;5.938;2023-04-10T11:57:03;21.14;34.81
65876;HTU21D;52657;51.128;5.938;2023-04-10T11:59:31;21.25;34.74
65876;HTU21D;52657;51.128;5.938;2023-04-10T12:04:32;21.35;33.51
65876;HTU21D;52657;51.128;5.938;2023-04-10T12:06:57;21.27;33.19
65876;HTU21D;52657;51.128;5.938;2023-04-10T12:09:23;21.23;33.67
65876;HTU21D;52657;51.128;5.938;2023-04-10T12:11:55;21.28;33.73
65876;HTU21D;52657;51.128;5.938;2023-04-10T12:14:22;21.30;33.17
65876;HTU21D;52657;51.128;5.938;2023-04-10T12:16:55;21.32;33.83
65876;HTU21D;52657;51.128;5.938;2023-04-10T12:19:21;21.39;33.60
65876;HTU21D;52657;51.128;5.938;2023-04-10T12:21:48;21.42;33.13
65876;HTU21D;52657;51.128;5.938;2023-04-10T12:24:41;21.39;33.28
65876;HTU21D;52657;51.128;5.938;2023-04-10T12:29:51;21.48;33.63
65876;HTU21D;52657;51.128;5.938;2023-04-10T12:32:18;21.52;33.38
65876;HTU21D;52657;51.128;5.938;2023-04-10T12:34:54;21.52;33.25
65876;HTU21D;52657;51.128;5.938;2023-04-10T12:37:25;21.46;33.22
65876;HTU21D;52657;51.128;5.938;2023-04-10T12:39:51;21.45;32.98
65876;HTU21D;52657;51.128;5.938;2023-04-10T12:42:19;21.38;33.14
65876;HTU21D;52657;51.128;5.938;2023-04-10T12:45:03;21.40;33.33
65876;HTU21D;52657;51.128;5.938;2023-04-10T12:47:29;21.57;33.60
65876;HTU21D;52657;51.128;5.938;2023-04-10T12:50:08;21.73;33.89
65876;HTU21D;52657;51.128;5.938;2023-04-10T12:52:39;21.82;33.30
65876;HTU21D;52657;51.128;5.938;2023-04-10T12:55:14;21.90;32.64
65876;HTU21D;52657;51.128;5.938;2023-04-10T12:57:42;21.88;32.85
65876;HTU21D;52657;51.128;5.938;2023-04-10T13:00:16;21.82;32.94
65876;HTU21D;52657;51.128;5.938;2023-04-10T13:02:43;21.85;33.77
65876;HTU21D;52657;51.128;5.938;2023-04-10T13:05:09;21.95;33.66
65876;HTU21D;52657;51.128;5.938;2023-04-10T13:07:36;21.96;33.09
65876;HTU21D;52657;51.128;5.938;2023-04-10T13:10:02;22.02;33.15
65876;HTU21D;52657;51.128;5.938;2023-04-10T13:12:29;22.06;32.70
65876;HTU21D;52657;51.128;5.938;2023-04-10T13:14:55;22.04;32.07
65876;HTU21D;52657;51.128;5.938;2023-04-10T13:17:22;22.03;32.41
65876;HTU21D;52657;51.128;5.938;2023-04-10T13:19:48;22.10;32.78
65876;HTU21D;52657;51.128;5.938;2023-04-10T13:22:14;22.19;32.17
65876;HTU21D;52657;51.128;5.938;2023-04-10T13:24:41;22.21;32.38
65876;HTU21D;52657;51.128;5.938;2023-04-10T13:27:06;22.19;31.97
65876;HTU21D;52657;51.128;5.938;2023-04-10T13:29:34;22.12;32.35
65876;HTU21D;52657;51.128;5.938;2023-04-10T13:32:01;21.97;32.28
65876;HTU21D;52657;51.128;5.938;2023-04-10T13:34:30;21.91;32.61
65876;HTU21D;52657;51.128;5.938;2023-04-10T13:36:56;21.94;33.24
65876;HTU21D;52657;51.128;5.938;2023-04-10T13:39:22;21.98;32.80
65876;HTU21D;52657;51.128;5.938;2023-04-10T13:41:47;21.99;32.65
65876;HTU21D;52657;51.128;5.938;2023-04-10T13:44:13;21.96;32.48
65876;HTU21D;52657;51.128;5.938;2023-04-10T13:46:39;21.97;32.01
65876;HTU21D;52657;51.128;5.938;2023-04-10T13:49:05;21.97;31.72
65876;HTU21D;52657;51.128;5.938;2023-04-10T13:51:30;21.87;31.56
65876;HTU21D;52657;51.128;5.938;2023-04-10T13:53:56;21.82;31.80
65876;HTU21D;52657;51.128;5.938;2023-04-10T13:56:23;21.82;31.71
65876;HTU21D;52657;51.128;5.938;2023-04-10T13:58:49;21.82;31.47
65876;HTU21D;52657;51.128;5.938;2023-04-10T14:01:14;21.83;31.25
65876;HTU21D;52657;51.128;5.938;2023-04-10T14:03:40;21.82;31.43
65876;HTU21D;52657;51.128;5.938;2023-04-10T14:06:06;21.83;30.96
65876;HTU21D;52657;51.128;5.938;2023-04-10T14:08:32;21.68;30.87
65876;HTU21D;52657;51.128;5.938;2023-04-10T14:10:58;21.63;31.08
65876;HTU21D;52657;51.128;5.938;2023-04-10T14:13:23;21.64;31.65
65876;HTU21D;52657;51.128;5.938;2023-04-10T14:15:50;21.66;31.77
65876;HTU21D;52657;51.128;5.938;2023-04-10T14:18:18;21.69;32.36
65876;HTU21D;52657;51.128;5.938;2023-04-10T14:20:44;21.74;32.28
65876;HTU21D;52657;51.128;5.938;2023-04-10T14:23:10;21.75;31.89
65876;HTU21D;52657;51.128;5.938;2023-04-10T14:25:43;21.78;31.77
65876;HTU21D;52657;51.128;5.938;2023-04-10T14:28:10;21.82;32.15
65876;HTU21D;52657;51.128;5.938;2023-04-10T14:30:45;21.83;31.64
65876;HTU21D;52657;51.128;5.938;2023-04-10T14:33:13;21.82;31.67
65876;HTU21D;52657;51.128;5.938;2023-04-10T14:35:39;21.69;31.29
65876;HTU21D;52657;51.128;5.938;2023-04-10T14:38:05;21.64;31.73
65876;HTU21D;52657;51.128;5.938;2023-04-10T14:40:31;21.53;31.66
65876;HTU21D;52657;51.128;5.938;2023-04-10T14:42:57;21.40;31.67
65876;HTU21D;52657;51.128;5.938;2023-04-10T14:45:22;21.34;31.99
65876;HTU21D;52657;51.128;5.938;2023-04-10T14:47:52;21.28;32.48
65876;HTU21D;52657;51.128;5.938;2023-04-10T14:50:18;21.21;32.51
65876;HTU21D;52657;51.128;5.938;2023-04-10T14:52:44;21.17;32.79
65876;HTU21D;52657;51.128;5.938;2023-04-10T14:55:10;21.08;33.01
65876;HTU21D;52657;51.128;5.938;2023-04-10T14:57:36;21.04;33.60
65876;HTU21D;52657;51.128;5.938;2023-04-10T15:00:02;20.99;34.37
65876;HTU21D;52657;51.128;5.938;2023-04-10T15:02:28;20.84;34.64
65876;HTU21D;52657;51.128;5.938;2023-04-10T15:04:55;20.65;36.51
65876;HTU21D;52657;51.128;5.938;2023-04-10T15:07:20;20.39;36.82
65876;HTU21D;52657;51.128;5.938;2023-04-10T15:09:49;20.16;37.78
65876;HTU21D;52657;51.128;5.938;2023-04-10T15:12:15;19.91;38.23
65876;HTU21D;52657;51.128;5.938;2023-04-10T15:14:41;19.75;39.12
65876;HTU21D;52657;51.128;5.938;2023-04-10T15:17:07;19.68;40.03
65876;HTU21D;52657;51.128;5.938;2023-04-10T15:19:32;19.68;41.92
65876;HTU21D;52657;51.128;5.938;2023-04-10T15:21:58;19.71;43.08
65876;HTU21D;52657;51.128;5.938;2023-04-10T15:24:24;19.70;43.82
65876;HTU21D;52657;51.128;5.938;2023-04-10T15:26:49;19.58;44.03
65876;HTU21D;52657;51.128;5.938;2023-04-10T15:29:17;19.47;43.48
65876;HTU21D;52657;51.128;5.938;2023-04-10T15:31:43;19.42;43.73
65876;HTU21D;52657;51.128;5.938;2023-04-10T15:34:09;19.39;44.80
65876;HTU21D;52657;51.128;5.938;2023-04-10T15:36:35;19.40;45.28
65876;HTU21D;52657;51.128;5.938;2023-04-10T15:39:00;19.43;45.69
65876;HTU21D;52657;51.128;5.938;2023-04-10T15:41:28;19.37;45.15
65876;HTU21D;52657;51.128;5.938;2023-04-10T15:43:56;19.27;44.24
65876;HTU21D;52657;51.128;5.938;2023-04-10T15:46:21;19.20;43.73
65876;HTU21D;52657;51.128;5.938;2023-04-10T15:48:47;19.14;43.49
65876;HTU21D;52657;51.128;5.938;2023-04-10T15:51:13;19.12;43.38
65876;HTU21D;52657;51.128;5.938;2023-04-10T15:53:39;19.12;43.67
65876;HTU21D;52657;51.128;5.938;2023-04-10T15:56:05;19.15;44.05
65876;HTU21D;52657;51.128;5.938;2023-04-10T15:58:34;19.10;44.19
65876;HTU21D;52657;51.128;5.938;2023-04-10T16:01:00;19.09;43.79
65876;HTU21D;52657;51.128;5.938;2023-04-10T16:03:26;19.06;43.98
65876;HTU21D;52657;51.128;5.938;2023-04-10T16:05:52;19.06;44.14
65876;HTU21D;52657;51.128;5.938;2023-04-10T16:08:18;19.07;45.22
65876;HTU21D;52657;51.128;5.938;2023-04-10T16:10:44;19.13;44.93
65876;HTU21D;52657;51.128;5.938;2023-04-10T16:13:10;19.13;45.27
65876;HTU21D;52657;51.128;5.938;2023-04-10T16:15:36;19.15;46.28
65876;HTU21D;52657;51.128;5.938;2023-04-10T16:18:06;19.18;46.37